createdAt,value
2022-11-10T00:01:46.186Z,62.50
2022-11-10T00:04:44.639Z,62.50
2022-11-10T00:07:50.156Z,62.70
2022-11-10T00:10:57.677Z,62.50
2022-11-10T00:14:22.162Z,62.50
2022-11-10T00:17:20.648Z,62.60
2022-11-10T00:20:26.156Z,62.70
2022-11-10T00:23:38.172Z,62.70
2022-11-10T00:26:43.171Z,62.60
2022-11-10T00:29:42.282Z,62.60
2022-11-10T00:32:48.181Z,62.60
2022-11-10T00:35:47.249Z,62.50
2022-11-10T00:38:52.181Z,62.50
2022-11-10T00:41:51.277Z,62.50
2022-11-10T00:44:56.170Z,62.50
2022-11-10T00:47:54.281Z,63.50
2022-11-10T00:50:59.169Z,62.60
2022-11-10T00:54:05.164Z,62.70
2022-11-10T00:57:03.768Z,62.60
2022-11-10T01:00:02.164Z,62.70
2022-11-10T01:03:09.178Z,62.70
2022-11-10T01:06:10.466Z,62.70
2022-11-10T01:09:16.234Z,62.70
2022-11-10T01:12:14.951Z,62.70
2022-11-10T01:15:27.053Z,62.90
2022-11-10T01:18:25.656Z,62.90
2022-11-10T01:21:31.189Z,62.90
2022-11-10T01:24:36.225Z,63.00
2022-11-10T01:27:35.176Z,63.10
2022-11-10T01:30:33.690Z,63.20
2022-11-10T01:33:39.182Z,63.20
2022-11-10T01:36:37.644Z,63.10
2022-11-10T01:39:43.176Z,63.10
2022-11-10T01:43:05.169Z,63.00
2022-11-10T01:46:15.168Z,63.00
2022-11-10T01:49:17.263Z,63.00
2022-11-10T01:52:27.151Z,63.10
2022-11-10T01:55:33.185Z,63.20
2022-11-10T01:58:40.033Z,63.20
2022-11-10T02:01:45.190Z,63.20
2022-11-10T02:04:44.225Z,63.10
2022-11-10T02:07:50.175Z,63.20
2022-11-10T02:10:49.260Z,63.20
2022-11-10T02:13:54.179Z,63.10
2022-11-10T02:16:53.232Z,63.20
2022-11-10T02:19:59.190Z,63.20
2022-11-10T02:23:05.184Z,63.20
2022-11-10T02:26:05.844Z,63.10
2022-11-10T02:29:11.189Z,63.10
2022-11-10T02:32:09.638Z,63.10
2022-11-10T02:35:14.171Z,63.10
2022-11-10T02:38:13.535Z,63.00
2022-11-10T02:41:19.194Z,63.00
2022-11-10T02:44:17.766Z,62.90
2022-11-10T02:47:23.167Z,63.00
2022-11-10T02:50:28.201Z,62.90
2022-11-10T02:53:34.207Z,63.00
2022-11-10T02:56:32.697Z,63.00
2022-11-10T02:59:38.198Z,63.10
2022-11-10T03:02:37.645Z,63.10
2022-11-10T03:05:44.193Z,63.20
2022-11-10T03:08:42.731Z,63.10
2022-11-10T03:11:47.183Z,63.10
2022-11-10T03:14:46.677Z,63.00
2022-11-10T03:17:52.197Z,63.00
2022-11-10T03:20:51.369Z,63.00
2022-11-10T03:23:57.178Z,63.00
2022-11-10T03:26:56.639Z,63.00
2022-11-10T03:30:02.181Z,63.00
2022-11-10T03:33:00.664Z,63.10
2022-11-10T03:36:06.194Z,63.00
2022-11-10T03:39:05.716Z,62.90
2022-11-10T03:42:11.182Z,63.00
2022-11-10T03:45:11.420Z,63.00
2022-11-10T03:48:17.174Z,63.00
2022-11-10T03:51:22.200Z,62.90
2022-11-10T03:54:28.198Z,63.00
2022-11-10T03:57:33.245Z,63.00
2022-11-10T04:00:32.330Z,63.00
2022-11-10T04:03:37.195Z,62.90
2022-11-10T04:06:55.015Z,62.90
2022-11-10T04:09:59.175Z,62.80
2022-11-10T04:13:17.010Z,62.80
2022-11-10T04:16:21.201Z,62.80
2022-11-10T04:19:19.238Z,62.80
2022-11-10T04:22:44.175Z,62.80
2022-11-10T04:26:16.213Z,62.70
2022-11-10T04:29:23.178Z,62.90
2022-11-10T04:32:29.186Z,62.90
2022-11-10T04:35:27.711Z,62.80
2022-11-10T04:38:33.177Z,62.90
2022-11-10T04:41:31.583Z,62.80
2022-11-10T04:44:37.191Z,62.80
2022-11-10T04:47:36.655Z,62.70
2022-11-10T04:50:42.183Z,62.70
2022-11-10T04:53:47.204Z,62.80
2022-11-10T04:56:52.213Z,62.80
2022-11-10T04:59:58.186Z,62.80
2022-11-10T05:02:57.253Z,62.80
2022-11-10T05:06:03.182Z,62.60
2022-11-10T05:09:02.356Z,62.70
2022-11-10T05:12:07.237Z,62.80
2022-11-10T05:15:05.309Z,62.90
2022-11-10T05:18:10.188Z,62.90
2022-11-10T05:21:09.243Z,63.00
2022-11-10T05:24:14.185Z,62.80
2022-11-10T05:27:20.168Z,62.70
2022-11-10T05:30:25.187Z,62.80
2022-11-10T05:33:31.191Z,62.70
2022-11-10T05:36:36.201Z,62.80
2022-11-10T05:39:41.213Z,62.80
2022-11-10T05:42:52.868Z,62.70
2022-11-10T05:45:57.192Z,62.60
2022-11-10T05:48:55.662Z,62.60
2022-11-10T05:52:01.190Z,62.50
2022-11-10T05:55:06.214Z,62.50
2022-11-10T05:58:05.230Z,62.50
2022-11-10T06:01:10.209Z,62.40
2022-11-10T06:04:16.204Z,62.00
2022-11-10T06:07:14.767Z,62.20
2022-11-10T06:10:20.187Z,62.20
2022-11-10T06:13:25.407Z,62.10
2022-11-10T06:16:31.209Z,62.10
2022-11-10T06:19:29.632Z,62.20
2022-11-10T06:22:42.191Z,62.30
2022-11-10T06:25:48.185Z,62.30
2022-11-10T06:28:54.193Z,62.20
2022-11-10T06:31:59.167Z,62.00
2022-11-10T06:35:00.649Z,62.00
2022-11-10T06:38:07.180Z,61.90
2022-11-10T06:41:13.211Z,61.90
2022-11-10T06:44:12.154Z,62.90
2022-11-10T06:47:18.200Z,62.00
2022-11-10T06:50:24.180Z,61.90
2022-11-10T06:53:30.464Z,61.90
2022-11-10T06:56:28.706Z,61.70
2022-11-10T06:59:33.169Z,61.60
2022-11-10T07:02:32.311Z,61.60
2022-11-10T07:05:38.178Z,61.70
2022-11-10T07:08:36.780Z,61.60
2022-11-10T07:11:42.192Z,61.60
2022-11-10T07:14:47.178Z,61.60
2022-11-10T07:17:54.180Z,61.80
2022-11-10T07:20:52.668Z,61.70
2022-11-10T07:23:58.190Z,61.70
2022-11-10T07:26:57.978Z,61.60
2022-11-10T07:30:03.204Z,61.50
2022-11-10T07:33:13.223Z,61.60
2022-11-10T07:36:19.187Z,61.60
2022-11-10T07:39:24.197Z,61.50
2022-11-10T07:42:22.303Z,61.40
2022-11-10T07:45:34.200Z,61.40
2022-11-10T07:48:39.214Z,61.40
2022-11-10T07:51:45.208Z,61.40
2022-11-10T07:54:43.664Z,62.30
2022-11-10T07:57:49.194Z,61.20
2022-11-10T08:00:54.192Z,61.20
2022-11-10T08:03:53.243Z,61.20
2022-11-10T08:06:58.273Z,61.10
2022-11-10T08:09:56.248Z,61.10
2022-11-10T08:13:06.227Z,61.00
2022-11-10T08:16:12.182Z,60.80
2022-11-10T08:19:10.730Z,60.90
2022-11-10T08:22:16.204Z,60.80
2022-11-10T08:25:14.727Z,60.60
2022-11-10T08:28:22.202Z,60.50
2022-11-10T08:31:21.848Z,60.30
2022-11-10T08:34:28.184Z,60.20
2022-11-10T08:37:34.215Z,60.10
2022-11-10T08:40:40.188Z,59.60
2022-11-10T08:43:45.183Z,59.00
2022-11-10T08:46:51.202Z,58.40
2022-11-10T08:49:50.661Z,57.70
2022-11-10T08:52:56.200Z,57.20
2022-11-10T08:56:06.184Z,57.10
2022-11-10T08:59:12.189Z,57.00
2022-11-10T09:02:10.742Z,56.70
2022-11-10T09:05:16.201Z,56.30
2022-11-10T09:08:16.088Z,55.80
2022-11-10T09:11:22.201Z,55.20
2022-11-10T09:14:20.744Z,54.30
2022-11-10T09:17:25.215Z,53.50
2022-11-10T09:20:24.936Z,54.10
2022-11-10T09:23:33.210Z,52.30
2022-11-10T09:26:38.846Z,51.60
2022-11-10T09:29:37.207Z,50.90
2022-11-10T09:32:35.668Z,50.40
2022-11-10T09:35:41.182Z,49.70
2022-11-10T09:38:46.215Z,49.40
2022-11-10T09:41:47.121Z,49.20
2022-11-10T09:45:06.219Z,48.90
2022-11-10T09:48:11.243Z,48.40
2022-11-10T09:51:36.219Z,48.00
2022-11-10T09:54:53.272Z,47.60
2022-11-10T09:58:01.219Z,47.40
2022-11-10T10:01:21.265Z,47.00
2022-11-10T10:04:38.719Z,46.80
2022-11-10T10:08:11.201Z,46.60
2022-11-10T10:11:39.730Z,46.50
2022-11-10T10:14:55.209Z,46.40
2022-11-10T10:18:02.127Z,46.70
2022-11-10T10:21:41.229Z,46.70
2022-11-10T10:24:54.196Z,46.60
2022-11-10T10:28:27.226Z,46.60
2022-11-10T10:31:30.264Z,46.40
2022-11-10T10:34:38.226Z,45.90
2022-11-10T10:37:55.280Z,46.00
2022-11-10T10:41:06.224Z,46.30
2022-11-10T10:44:07.258Z,46.50
2022-11-10T10:47:12.191Z,46.80
2022-11-10T10:50:38.203Z,47.10
2022-11-10T10:53:47.581Z,47.40
2022-11-10T10:56:53.216Z,47.40
2022-11-10T11:00:09.544Z,47.60
2022-11-10T11:03:25.226Z,47.80
2022-11-10T11:06:31.858Z,47.80
2022-11-10T11:09:39.265Z,48.00
2022-11-10T11:12:37.698Z,48.10
2022-11-10T11:15:44.225Z,48.20
2022-11-10T11:18:43.739Z,48.30
2022-11-10T11:21:57.237Z,48.30
2022-11-10T11:25:16.272Z,48.30
2022-11-10T11:28:28.214Z,48.60
2022-11-10T11:31:50.508Z,48.90
2022-11-10T11:34:59.229Z,48.80
2022-11-10T11:38:10.226Z,48.80
2022-11-10T11:41:48.216Z,49.10
2022-11-10T11:45:23.202Z,49.20
2022-11-10T11:48:49.970Z,49.40
2022-11-10T11:52:29.201Z,49.40
2022-11-10T11:55:31.304Z,49.60
2022-11-10T11:58:42.218Z,49.80
2022-11-10T12:01:50.277Z,50.00
2022-11-10T12:05:33.218Z,50.00
2022-11-10T12:08:53.233Z,49.90
2022-11-10T12:12:21.377Z,49.90
2022-11-10T12:15:43.239Z,49.80
2022-11-10T12:18:49.833Z,50.20
2022-11-10T12:22:21.232Z,50.20
2022-11-10T12:26:05.273Z,50.40
2022-11-10T12:29:38.234Z,50.50
2022-11-10T12:32:58.445Z,50.50
2022-11-10T12:36:07.222Z,50.80
2022-11-10T12:39:25.068Z,51.00
2022-11-10T12:42:35.212Z,51.00
2022-11-10T12:45:44.021Z,51.10
2022-11-10T12:49:16.232Z,51.00
2022-11-10T12:52:32.235Z,51.00
2022-11-10T12:55:57.284Z,51.00
2022-11-10T12:59:27.235Z,51.10
2022-11-10T13:02:44.255Z,51.40
2022-11-10T13:05:52.305Z,51.40
2022-11-10T13:09:00.231Z,51.30
2022-11-10T13:12:17.249Z,51.50
2022-11-10T13:16:02.228Z,51.70
2022-11-10T13:19:07.243Z,51.80
2022-11-10T13:22:06.273Z,51.60
2022-11-10T13:25:49.236Z,52.80
2022-11-10T13:28:47.702Z,51.90
2022-11-10T13:31:54.248Z,51.80
2022-11-10T13:34:54.509Z,51.80
2022-11-10T13:38:00.241Z,51.80
2022-11-10T13:41:23.214Z,52.00
2022-11-10T13:44:42.240Z,52.20
2022-11-10T13:47:54.869Z,52.10
2022-11-10T13:51:29.227Z,52.10
2022-11-10T13:54:58.224Z,52.10
2022-11-10T13:58:04.375Z,52.10
2022-11-10T14:01:25.224Z,52.20
2022-11-10T14:04:47.951Z,52.10
2022-11-10T14:07:52.225Z,52.30
2022-11-10T14:11:01.231Z,52.30
2022-11-10T14:14:17.232Z,52.40
2022-11-10T14:17:37.302Z,52.40
2022-11-10T14:20:49.221Z,52.50
2022-11-10T14:24:38.264Z,52.50
2022-11-10T14:27:57.680Z,52.60
2022-11-10T14:30:58.211Z,52.60
2022-11-10T14:34:12.241Z,52.60
2022-11-10T14:37:23.252Z,52.60
2022-11-10T14:40:28.116Z,52.80
2022-11-10T14:43:35.244Z,52.80
2022-11-10T14:46:41.240Z,52.90
2022-11-10T14:49:39.792Z,52.90
2022-11-10T14:52:45.244Z,52.90
2022-11-10T14:55:45.299Z,53.00
2022-11-10T14:58:54.252Z,53.10
2022-11-10T15:01:59.007Z,54.10
2022-11-10T15:05:05.236Z,53.10
2022-11-10T15:08:05.032Z,53.10
2022-11-10T15:11:10.231Z,53.10
2022-11-10T15:14:39.640Z,53.00
2022-11-10T15:18:05.244Z,53.00
2022-11-10T15:21:13.295Z,53.10
2022-11-10T15:24:13.295Z,53.20
2022-11-10T15:27:29.308Z,53.20
2022-11-10T15:30:36.267Z,53.40
2022-11-10T15:33:36.500Z,53.40
2022-11-10T15:36:48.302Z,53.40
2022-11-10T15:39:46.927Z,53.40
2022-11-10T15:42:52.265Z,53.60
2022-11-10T15:45:54.444Z,53.70
2022-11-10T15:49:03.263Z,53.70
2022-11-10T15:52:29.238Z,53.60
2022-11-10T15:55:31.593Z,53.80
2022-11-10T15:58:36.252Z,53.90
2022-11-10T16:01:43.311Z,53.90
2022-11-10T16:04:48.261Z,53.90
2022-11-10T16:07:47.308Z,54.00
2022-11-10T16:10:55.235Z,54.00
2022-11-10T16:14:02.253Z,54.10
2022-11-10T16:17:00.727Z,54.10
2022-11-10T16:20:06.267Z,54.10
2022-11-10T16:23:04.751Z,54.20
2022-11-10T16:26:11.272Z,54.10
2022-11-10T16:29:13.699Z,54.20
2022-11-10T16:32:19.245Z,54.20
2022-11-10T16:35:17.716Z,54.30
2022-11-10T16:38:32.252Z,54.30
2022-11-10T16:41:30.735Z,54.40
2022-11-10T16:44:41.322Z,54.40
2022-11-10T16:47:40.990Z,54.40
2022-11-10T16:50:48.237Z,54.40
2022-11-10T16:53:47.276Z,54.40
2022-11-10T16:56:56.257Z,54.40
2022-11-10T16:59:54.714Z,54.30
2022-11-10T17:03:14.263Z,54.40
2022-11-10T17:06:21.275Z,54.40
2022-11-10T17:09:28.087Z,54.40
2022-11-10T17:12:33.276Z,55.40
2022-11-10T17:15:35.308Z,54.50
2022-11-10T17:18:42.300Z,54.40
2022-11-10T17:21:49.305Z,54.40
2022-11-10T17:25:07.252Z,54.40
2022-11-10T17:28:12.325Z,54.40
2022-11-10T17:31:20.277Z,54.50
2022-11-10T17:34:18.741Z,54.40
2022-11-10T17:37:27.250Z,54.40
2022-11-10T17:40:34.261Z,54.40
2022-11-10T17:43:45.290Z,54.30
2022-11-10T17:46:43.989Z,54.20
2022-11-10T17:49:49.280Z,54.20
2022-11-10T17:52:48.480Z,54.20
2022-11-10T17:55:54.244Z,54.10
2022-11-10T17:59:00.266Z,54.10
2022-11-10T18:02:07.241Z,54.10
2022-11-10T18:05:13.277Z,54.10
2022-11-10T18:08:11.348Z,54.40
2022-11-10T18:11:19.268Z,54.40
2022-11-10T18:14:25.255Z,54.50
2022-11-10T18:17:30.256Z,54.40
2022-11-10T18:20:35.271Z,54.30
2022-11-10T18:23:33.757Z,54.20
2022-11-10T18:26:39.281Z,54.20
2022-11-10T18:29:37.734Z,54.20
2022-11-10T18:32:49.281Z,54.10
2022-11-10T18:35:54.263Z,54.10
2022-11-10T18:39:00.258Z,54.40
2022-11-10T18:41:58.730Z,54.20
2022-11-10T18:45:04.255Z,54.30
2022-11-10T18:48:03.929Z,54.20
2022-11-10T18:51:09.263Z,54.30
2022-11-10T18:54:08.288Z,54.40
2022-11-10T18:57:13.267Z,54.30
2022-11-10T19:00:13.585Z,54.50
2022-11-10T19:03:18.260Z,54.40
2022-11-10T19:06:17.451Z,54.50
2022-11-10T19:09:24.368Z,54.70
2022-11-10T19:12:26.529Z,54.70
2022-11-10T19:15:32.430Z,54.70
2022-11-10T19:18:30.876Z,54.80
2022-11-10T19:21:38.248Z,54.90
2022-11-10T19:24:53.916Z,54.90
2022-11-10T19:28:02.285Z,54.80
2022-11-10T19:31:06.044Z,54.80
2022-11-10T19:34:11.270Z,54.90
2022-11-10T19:37:09.819Z,54.90
2022-11-10T19:40:14.336Z,54.90
2022-11-10T19:43:20.541Z,54.90
2022-11-10T19:46:21.308Z,54.90
2022-11-10T19:49:28.278Z,54.80
2022-11-10T19:52:34.404Z,55.00
2022-11-10T19:55:39.633Z,55.10
2022-11-10T19:58:39.848Z,55.10
2022-11-10T20:01:44.413Z,55.20
2022-11-10T20:05:02.100Z,55.20
2022-11-10T20:08:18.281Z,55.20
2022-11-10T20:11:21.268Z,55.20
2022-11-10T20:14:27.284Z,55.30
2022-11-10T20:17:26.410Z,55.40
2022-11-10T20:20:31.285Z,55.40
2022-11-10T20:23:30.403Z,55.50
2022-11-10T20:26:35.247Z,55.60
2022-11-10T20:29:34.360Z,55.60
2022-11-10T20:32:39.307Z,55.70
2022-11-10T20:35:38.537Z,55.80
2022-11-10T20:38:44.300Z,55.80
2022-11-10T20:41:49.267Z,55.90
2022-11-10T20:44:48.387Z,56.00
2022-11-10T20:47:54.320Z,55.90
2022-11-10T20:50:52.732Z,56.00
2022-11-10T20:53:58.272Z,56.20
2022-11-10T20:57:04.268Z,56.30
2022-11-10T21:00:02.336Z,56.30
2022-11-10T21:03:08.278Z,56.20
2022-11-10T21:06:07.389Z,56.30
2022-11-10T21:09:13.314Z,56.40
2022-11-10T21:12:31.124Z,56.60
2022-11-10T21:15:35.304Z,56.60
2022-11-10T21:18:38.680Z,56.60
2022-11-10T21:21:43.289Z,56.70
2022-11-10T21:24:41.336Z,56.80
2022-11-10T21:27:46.272Z,56.80
2022-11-10T21:30:45.353Z,56.80
2022-11-10T21:33:51.273Z,57.90
2022-11-10T21:36:50.371Z,56.90
2022-11-10T21:39:56.324Z,56.90
2022-11-10T21:42:55.639Z,57.00
2022-11-10T21:46:04.281Z,57.00
2022-11-10T21:49:07.596Z,57.10
2022-11-10T21:52:12.273Z,57.20
2022-11-10T21:55:12.391Z,57.30
2022-11-10T21:58:17.281Z,57.30
2022-11-10T22:01:20.601Z,57.30
2022-11-10T22:04:25.257Z,57.40
2022-11-10T22:07:24.439Z,57.50
2022-11-10T22:10:49.250Z,57.50
2022-11-10T22:14:13.296Z,57.50
2022-11-10T22:17:34.758Z,57.50
2022-11-10T22:20:40.268Z,57.50
2022-11-10T22:24:03.271Z,57.60
2022-11-10T22:27:10.397Z,57.80
2022-11-10T22:30:09.252Z,57.80
2022-11-10T22:33:27.062Z,57.80
2022-11-10T22:36:32.287Z,57.90
2022-11-10T22:39:49.140Z,58.00
2022-11-10T22:43:12.264Z,58.00
2022-11-10T22:46:10.751Z,58.00
2022-11-10T22:49:23.304Z,58.20
2022-11-10T22:52:21.752Z,58.20
2022-11-10T22:55:27.281Z,58.30
2022-11-10T22:58:25.767Z,58.20
2022-11-10T23:01:31.399Z,58.30
2022-11-10T23:04:29.743Z,58.30
2022-11-10T23:07:35.291Z,58.50
2022-11-10T23:10:33.784Z,58.40
2022-11-10T23:13:39.284Z,58.50
2022-11-10T23:16:37.796Z,59.50
2022-11-10T23:19:42.264Z,58.60
2022-11-10T23:22:48.288Z,58.50
2022-11-10T23:25:47.397Z,58.50
2022-11-10T23:28:52.261Z,58.50
2022-11-10T23:31:58.296Z,58.60
2022-11-10T23:34:57.051Z,58.60
2022-11-10T23:38:02.270Z,59.50
2022-11-10T23:41:09.294Z,58.90
2022-11-10T23:44:15.272Z,59.00
2022-11-10T23:47:13.741Z,59.00
2022-11-10T23:50:19.324Z,59.90
2022-11-10T23:53:25.532Z,58.90
2022-11-10T23:56:24.368Z,59.00
2022-11-10T23:59:29.305Z,59.00
